Aérodrome :
LOGIN :

S'inscrire | Disclaimer

   EN    FR    IT 

 










Légende :    VFR   VFR Marginal   IFR   IFR Intensif   IFR Très Intensif
Visi : 
Plafond : 
>= 8 km
>= 3000ft
5 à 8 km
1000 à 3000 ft
1500m à 5 km
500 à 1000 ft
800 à 1500m
200 à 500 ft
< 800m
< 200 ft
Symboles :   Orages  Brouillard  Fortes neiges  Fortes précipitations  Vent > 20 kt
SIGMETs :   Divers  Orages  Givrage  Turbulence  Onde Orograph.  Cendres Volcan.







- Altitude de l'aérodrome : 291 ft
- Code IATA : ORY
- Voir les cartes d'approche


LFPO - Paris-Orly

DERNIER METAR :
  • 190430Z 26003KT 9999 -RA FEW043 OVC080 07/06 Q1020 NOSIG

METARs EXPIRÉS :
  • 190400Z 26003KT 9999 FEW043 OVC076 07/06 Q1020 NOSIG
  • 190330Z 24003KT 9999 FEW043 BKN060 BKN071 07/06 Q1020 NOSIG
  • 190300Z 24002KT 8000 FEW031 BKN060 07/06 Q1020 NOSIG
  • 190230Z 23003KT 9000 -RA SCT031 BKN042 BKN054 07/06 Q1020 NOSIG
  • 190200Z 26004KT 9000 -RA SCT031 BKN042 BKN048 07/06 Q1020 NOSIG

TAF TAF LFPO
Valide du 19 à 00h jusqu'au 20 à 06h UTC


182300Z 1900/2006 28010KT CAVOK
TEMPO 1900/1904 30005KT 4000 -RA
PROB30
TEMPO 1905/1910 0800 BCFG BKN006
BECMG 1910/1912 SCT025
PROB30
TEMPO 1914/1918 21005KT -SHRA BKN030
TEMPO 2000/2006 3000 BR BKN006
PROB40
TEMPO 2002/2006 0800 FG BKN004
ATIS : +33 1 49 75 65 80
Pas de NOTAMs connus pour ce terrain.
1 SIGMET publié pour la FIR Paris (LFFF) :
 
Turbulence forte
LFFF SIGMET 1 VALID 190410/190800 LFPW
LFFF PARIS FIR/UIR SEV TURB FCST WI N4730 W00015 - N4830 W00015 - N5030 E00215 - N4930 E00245 - N4730 W00015 FL180/280 MOV SE 10KT NC=



MET'MAP, la Météo Aéronautique d'un coup d'oeil ! - Copyright ORBIFLY Décembre 2007 - Disclaimer

ORBIFLY MET'MAP TEAM :

Programmation & Développement : Alexandra Zaïnal
Conception & Développement : Baudouin d'Aumeries
Co-Programmation & Développement : Marc-Olivier Méhu
Soutien technique & logistique : Manuel Goepfert

Contact : metmap@orbifly.com




SOURCES & CREDITS :

   NOAA